sensor_id;sensor_type;location;lat;lon;timestamp;P1;durP1;ratioP1;P2;durP2;ratioP2
10659;SDS011;5378;53.206;13.316;2023-05-08T00:02:16;6.43;;;3.33;;
10659;SDS011;5378;53.206;13.316;2023-05-08T00:05:03;7.00;;;2.23;;
10659;SDS011;5378;53.206;13.316;2023-05-08T00:07:53;4.40;;;3.43;;
10659;SDS011;5378;53.206;13.316;2023-05-08T00:10:45;6.77;;;2.87;;
10659;SDS011;5378;53.206;13.316;2023-05-08T00:13:33;4.67;;;3.57;;
10659;SDS011;5378;53.206;13.316;2023-05-08T00:16:20;4.07;;;3.00;;
10659;SDS011;5378;53.206;13.316;2023-05-08T00:19:07;7.03;;;3.10;;
10659;SDS011;5378;53.206;13.316;2023-05-08T00:21:55;4.30;;;3.27;;
10659;SDS011;5378;53.206;13.316;2023-05-08T00:24:43;6.50;;;3.40;;
10659;SDS011;5378;53.206;13.316;2023-05-08T00:27:30;6.70;;;3.87;;
10659;SDS011;5378;53.206;13.316;2023-05-08T00:30:18;6.73;;;2.97;;
10659;SDS011;5378;53.206;13.316;2023-05-08T00:33:06;4.47;;;3.33;;
10659;SDS011;5378;53.206;13.316;2023-05-08T00:35:57;4.70;;;3.43;;
10659;SDS011;5378;53.206;13.316;2023-05-08T00:38:45;5.90;;;3.43;;
10659;SDS011;5378;53.206;13.316;2023-05-08T00:41:34;6.67;;;3.70;;
10659;SDS011;5378;53.206;13.316;2023-05-08T00:44:21;5.00;;;3.23;;
10659;SDS011;5378;53.206;13.316;2023-05-08T00:47:08;5.20;;;3.33;;
10659;SDS011;5378;53.206;13.316;2023-05-08T00:49:55;3.30;;;2.47;;
10659;SDS011;5378;53.206;13.316;2023-05-08T00:52:43;4.70;;;3.10;;
10659;SDS011;5378;53.206;13.316;2023-05-08T00:55:32;4.13;;;2.40;;
10659;SDS011;5378;53.206;13.316;2023-05-08T00:58:20;3.60;;;3.30;;
10659;SDS011;5378;53.206;13.316;2023-05-08T01:01:10;3.83;;;2.90;;
10659;SDS011;5378;53.206;13.316;2023-05-08T01:03:58;11.60;;;3.60;;
10659;SDS011;5378;53.206;13.316;2023-05-08T01:06:46;6.97;;;3.93;;
10659;SDS011;5378;53.206;13.316;2023-05-08T01:09:33;5.13;;;3.20;;
10659;SDS011;5378;53.206;13.316;2023-05-08T01:12:21;7.43;;;3.80;;
10659;SDS011;5378;53.206;13.316;2023-05-08T01:15:17;4.17;;;3.30;;
10659;SDS011;5378;53.206;13.316;2023-05-08T01:18:10;6.40;;;4.40;;
10659;SDS011;5378;53.206;13.316;2023-05-08T01:21:07;4.90;;;3.60;;
10659;SDS011;5378;53.206;13.316;2023-05-08T01:24:18;6.40;;;3.97;;
10659;SDS011;5378;53.206;13.316;2023-05-08T01:27:24;8.17;;;4.30;;
10659;SDS011;5378;53.206;13.316;2023-05-08T01:30:38;7.20;;;4.10;;
10659;SDS011;5378;53.206;13.316;2023-05-08T01:33:46;5.47;;;3.90;;
10659;SDS011;5378;53.206;13.316;2023-05-08T01:36:44;6.13;;;3.30;;
10659;SDS011;5378;53.206;13.316;2023-05-08T01:39:38;4.90;;;3.87;;
10659;SDS011;5378;53.206;13.316;2023-05-08T01:42:32;7.10;;;4.30;;
10659;SDS011;5378;53.206;13.316;2023-05-08T01:45:31;6.53;;;4.37;;
10659;SDS011;5378;53.206;13.316;2023-05-08T01:48:25;14.53;;;3.87;;
10659;SDS011;5378;53.206;13.316;2023-05-08T01:51:17;4.53;;;3.60;;
10659;SDS011;5378;53.206;13.316;2023-05-08T01:54:08;7.50;;;3.93;;
10659;SDS011;5378;53.206;13.316;2023-05-08T01:56:58;4.50;;;3.40;;
10659;SDS011;5378;53.206;13.316;2023-05-08T01:59:48;6.07;;;3.80;;
10659;SDS011;5378;53.206;13.316;2023-05-08T02:02:37;7.27;;;4.23;;
10659;SDS011;5378;53.206;13.316;2023-05-08T02:05:25;9.30;;;4.20;;
10659;SDS011;5378;53.206;13.316;2023-05-08T02:08:15;5.93;;;4.13;;
10659;SDS011;5378;53.206;13.316;2023-05-08T02:11:04;5.80;;;4.37;;
10659;SDS011;5378;53.206;13.316;2023-05-08T02:13:52;5.77;;;3.67;;
10659;SDS011;5378;53.206;13.316;2023-05-08T02:16:40;6.23;;;4.60;;
10659;SDS011;5378;53.206;13.316;2023-05-08T02:19:28;5.30;;;3.23;;
10659;SDS011;5378;53.206;13.316;2023-05-08T02:22:17;6.40;;;4.00;;
10659;SDS011;5378;53.206;13.316;2023-05-08T02:25:07;8.60;;;4.67;;
10659;SDS011;5378;53.206;13.316;2023-05-08T02:27:56;6.17;;;3.97;;
10659;SDS011;5378;53.206;13.316;2023-05-08T02:30:44;7.03;;;4.70;;
10659;SDS011;5378;53.206;13.316;2023-05-08T02:33:31;10.67;;;4.70;;
10659;SDS011;5378;53.206;13.316;2023-05-08T02:36:18;6.40;;;4.23;;
10659;SDS011;5378;53.206;13.316;2023-05-08T02:39:07;9.10;;;4.57;;
10659;SDS011;5378;53.206;13.316;2023-05-08T02:42:00;5.83;;;4.60;;
10659;SDS011;5378;53.206;13.316;2023-05-08T02:44:48;7.70;;;3.67;;
10659;SDS011;5378;53.206;13.316;2023-05-08T02:47:37;7.27;;;4.43;;
10659;SDS011;5378;53.206;13.316;2023-05-08T02:50:31;8.67;;;4.50;;
10659;SDS011;5378;53.206;13.316;2023-05-08T02:53:24;5.00;;;3.90;;
10659;SDS011;5378;53.206;13.316;2023-05-08T02:56:17;7.00;;;4.60;;
10659;SDS011;5378;53.206;13.316;2023-05-08T02:59:15;5.70;;;3.70;;
10659;SDS011;5378;53.206;13.316;2023-05-08T03:02:07;8.33;;;4.33;;
10659;SDS011;5378;53.206;13.316;2023-05-08T03:04:58;10.40;;;4.73;;
10659;SDS011;5378;53.206;13.316;2023-05-08T03:07:50;6.40;;;4.57;;
10659;SDS011;5378;53.206;13.316;2023-05-08T03:10:41;7.00;;;4.40;;
10659;SDS011;5378;53.206;13.316;2023-05-08T03:13:31;8.10;;;4.57;;
10659;SDS011;5378;53.206;13.316;2023-05-08T03:16:23;7.10;;;4.37;;
10659;SDS011;5378;53.206;13.316;2023-05-08T03:19:14;5.93;;;4.37;;
10659;SDS011;5378;53.206;13.316;2023-05-08T03:22:06;5.60;;;3.93;;
10659;SDS011;5378;53.206;13.316;2023-05-08T03:24:55;9.73;;;4.80;;
10659;SDS011;5378;53.206;13.316;2023-05-08T03:27:45;15.27;;;4.63;;
10659;SDS011;5378;53.206;13.316;2023-05-08T03:30:35;6.57;;;4.20;;
10659;SDS011;5378;53.206;13.316;2023-05-08T03:33:27;6.90;;;4.80;;
10659;SDS011;5378;53.206;13.316;2023-05-08T03:36:16;5.10;;;3.70;;
10659;SDS011;5378;53.206;13.316;2023-05-08T03:39:04;4.63;;;3.90;;
10659;SDS011;5378;53.206;13.316;2023-05-08T03:41:52;8.33;;;4.13;;
10659;SDS011;5378;53.206;13.316;2023-05-08T03:44:41;7.20;;;4.73;;
10659;SDS011;5378;53.206;13.316;2023-05-08T03:47:28;10.83;;;6.20;;
10659;SDS011;5378;53.206;13.316;2023-05-08T03:50:18;5.33;;;4.20;;
10659;SDS011;5378;53.206;13.316;2023-05-08T03:53:05;6.90;;;4.60;;
10659;SDS011;5378;53.206;13.316;2023-05-08T03:55:52;7.50;;;4.63;;
10659;SDS011;5378;53.206;13.316;2023-05-08T03:58:40;5.97;;;3.80;;
10659;SDS011;5378;53.206;13.316;2023-05-08T04:01:36;5.90;;;3.97;;
10659;SDS011;5378;53.206;13.316;2023-05-08T04:04:29;6.10;;;3.90;;
10659;SDS011;5378;53.206;13.316;2023-05-08T04:07:30;6.20;;;4.30;;
10659;SDS011;5378;53.206;13.316;2023-05-08T04:10:23;4.60;;;3.07;;
10659;SDS011;5378;53.206;13.316;2023-05-08T04:13:17;5.53;;;3.30;;
10659;SDS011;5378;53.206;13.316;2023-05-08T04:16:11;9.37;;;3.93;;
10659;SDS011;5378;53.206;13.316;2023-05-08T04:19:04;8.13;;;3.70;;
10659;SDS011;5378;53.206;13.316;2023-05-08T04:21:57;2.93;;;2.63;;
10659;SDS011;5378;53.206;13.316;2023-05-08T04:24:52;5.87;;;3.03;;
10659;SDS011;5378;53.206;13.316;2023-05-08T04:27:43;3.30;;;3.00;;
10659;SDS011;5378;53.206;13.316;2023-05-08T04:30:31;4.50;;;3.13;;
10659;SDS011;5378;53.206;13.316;2023-05-08T04:33:19;7.10;;;3.20;;
10659;SDS011;5378;53.206;13.316;2023-05-08T04:36:09;4.60;;;3.20;;
10659;SDS011;5378;53.206;13.316;2023-05-08T04:38:58;12.33;;;2.90;;
10659;SDS011;5378;53.206;13.316;2023-05-08T04:41:47;5.37;;;3.10;;
10659;SDS011;5378;53.206;13.316;2023-05-08T04:44:37;5.93;;;3.00;;
10659;SDS011;5378;53.206;13.316;2023-05-08T04:47:24;3.97;;;2.63;;
10659;SDS011;5378;53.206;13.316;2023-05-08T04:50:12;3.57;;;2.73;;
10659;SDS011;5378;53.206;13.316;2023-05-08T04:52:59;3.97;;;2.57;;
10659;SDS011;5378;53.206;13.316;2023-05-08T04:55:46;6.30;;;2.90;;
10659;SDS011;5378;53.206;13.316;2023-05-08T04:58:34;6.17;;;3.53;;
10659;SDS011;5378;53.206;13.316;2023-05-08T05:01:23;3.83;;;2.80;;
10659;SDS011;5378;53.206;13.316;2023-05-08T05:04:10;3.30;;;2.57;;
10659;SDS011;5378;53.206;13.316;2023-05-08T05:06:56;4.73;;;2.73;;
10659;SDS011;5378;53.206;13.316;2023-05-08T05:09:43;2.60;;;2.27;;
10659;SDS011;5378;53.206;13.316;2023-05-08T05:12:31;5.93;;;3.13;;
10659;SDS011;5378;53.206;13.316;2023-05-08T05:15:20;4.60;;;2.53;;
10659;SDS011;5378;53.206;13.316;2023-05-08T05:18:07;4.33;;;2.57;;
10659;SDS011;5378;53.206;13.316;2023-05-08T05:20:56;2.83;;;2.53;;
10659;SDS011;5378;53.206;13.316;2023-05-08T05:23:44;3.77;;;2.70;;
10659;SDS011;5378;53.206;13.316;2023-05-08T05:26:31;4.63;;;3.00;;
10659;SDS011;5378;53.206;13.316;2023-05-08T05:29:19;5.80;;;3.03;;
10659;SDS011;5378;53.206;13.316;2023-05-08T05:32:08;4.97;;;3.40;;
10659;SDS011;5378;53.206;13.316;2023-05-08T05:34:56;2.73;;;2.47;;
10659;SDS011;5378;53.206;13.316;2023-05-08T05:37:43;3.83;;;2.70;;
10659;SDS011;5378;53.206;13.316;2023-05-08T05:40:31;3.10;;;2.73;;
10659;SDS011;5378;53.206;13.316;2023-05-08T05:43:18;3.93;;;3.23;;
10659;SDS011;5378;53.206;13.316;2023-05-08T05:46:05;5.50;;;2.90;;
10659;SDS011;5378;53.206;13.316;2023-05-08T05:48:55;3.40;;;2.50;;
10659;SDS011;5378;53.206;13.316;2023-05-08T05:51:42;3.63;;;2.27;;
10659;SDS011;5378;53.206;13.316;2023-05-08T05:54:30;4.50;;;3.00;;
10659;SDS011;5378;53.206;13.316;2023-05-08T05:57:17;4.67;;;2.83;;
10659;SDS011;5378;53.206;13.316;2023-05-08T06:00:05;3.73;;;2.70;;
10659;SDS011;5378;53.206;13.316;2023-05-08T06:02:59;6.67;;;3.33;;
10659;SDS011;5378;53.206;13.316;2023-05-08T06:05:49;4.33;;;2.80;;
10659;SDS011;5378;53.206;13.316;2023-05-08T06:08:37;8.50;;;3.07;;
10659;SDS011;5378;53.206;13.316;2023-05-08T06:11:24;4.53;;;3.10;;
10659;SDS011;5378;53.206;13.316;2023-05-08T06:14:11;4.93;;;2.63;;
10659;SDS011;5378;53.206;13.316;2023-05-08T06:16:58;4.70;;;2.90;;
10659;SDS011;5378;53.206;13.316;2023-05-08T06:19:45;3.70;;;2.60;;
10659;SDS011;5378;53.206;13.316;2023-05-08T06:22:36;3.33;;;2.67;;
10659;SDS011;5378;53.206;13.316;2023-05-08T06:25:23;4.60;;;2.73;;
10659;SDS011;5378;53.206;13.316;2023-05-08T06:28:12;6.00;;;2.83;;
10659;SDS011;5378;53.206;13.316;2023-05-08T06:30:59;4.00;;;3.40;;
10659;SDS011;5378;53.206;13.316;2023-05-08T06:33:47;5.83;;;2.90;;
10659;SDS011;5378;53.206;13.316;2023-05-08T06:36:34;3.77;;;2.90;;
10659;SDS011;5378;53.206;13.316;2023-05-08T06:39:22;3.77;;;2.20;;
10659;SDS011;5378;53.206;13.316;2023-05-08T06:42:09;5.93;;;2.90;;
10659;SDS011;5378;53.206;13.316;2023-05-08T06:44:57;4.13;;;2.13;;
10659;SDS011;5378;53.206;13.316;2023-05-08T06:47:45;2.97;;;2.37;;
10659;SDS011;5378;53.206;13.316;2023-05-08T06:50:32;3.13;;;2.27;;
10659;SDS011;5378;53.206;13.316;2023-05-08T06:53:19;3.10;;;2.80;;
10659;SDS011;5378;53.206;13.316;2023-05-08T06:56:07;3.50;;;2.60;;
10659;SDS011;5378;53.206;13.316;2023-05-08T06:58:54;3.27;;;2.40;;
10659;SDS011;5378;53.206;13.316;2023-05-08T07:01:49;3.37;;;2.07;;
10659;SDS011;5378;53.206;13.316;2023-05-08T07:04:36;3.07;;;2.10;;
10659;SDS011;5378;53.206;13.316;2023-05-08T07:07:24;3.37;;;2.57;;
10659;SDS011;5378;53.206;13.316;2023-05-08T07:10:11;3.57;;;1.70;;
10659;SDS011;5378;53.206;13.316;2023-05-08T07:12:59;4.87;;;2.27;;
10659;SDS011;5378;53.206;13.316;2023-05-08T07:15:47;3.13;;;2.00;;
10659;SDS011;5378;53.206;13.316;2023-05-08T07:18:34;2.70;;;2.13;;
10659;SDS011;5378;53.206;13.316;2023-05-08T07:21:21;3.13;;;2.17;;
10659;SDS011;5378;53.206;13.316;2023-05-08T07:24:08;9.20;;;2.53;;
10659;SDS011;5378;53.206;13.316;2023-05-08T07:26:55;5.17;;;2.53;;
10659;SDS011;5378;53.206;13.316;2023-05-08T07:29:45;4.53;;;2.30;;
10659;SDS011;5378;53.206;13.316;2023-05-08T07:32:32;3.63;;;2.23;;
10659;SDS011;5378;53.206;13.316;2023-05-08T07:35:19;6.90;;;2.20;;
10659;SDS011;5378;53.206;13.316;2023-05-08T07:38:06;3.40;;;2.13;;
10659;SDS011;5378;53.206;13.316;2023-05-08T07:40:53;2.57;;;1.87;;
10659;SDS011;5378;53.206;13.316;2023-05-08T07:43:41;2.90;;;2.10;;
10659;SDS011;5378;53.206;13.316;2023-05-08T07:46:30;4.30;;;2.43;;
10659;SDS011;5378;53.206;13.316;2023-05-08T07:49:17;2.33;;;2.03;;
10659;SDS011;5378;53.206;13.316;2023-05-08T07:52:04;3.30;;;2.07;;
10659;SDS011;5378;53.206;13.316;2023-05-08T07:54:51;5.10;;;2.17;;
10659;SDS011;5378;53.206;13.316;2023-05-08T07:57:39;5.27;;;2.20;;
10659;SDS011;5378;53.206;13.316;2023-05-08T08:00:27;2.87;;;2.00;;
10659;SDS011;5378;53.206;13.316;2023-05-08T08:03:15;8.60;;;2.03;;
10659;SDS011;5378;53.206;13.316;2023-05-08T08:06:02;2.50;;;1.83;;
10659;SDS011;5378;53.206;13.316;2023-05-08T08:08:50;1.83;;;1.50;;
10659;SDS011;5378;53.206;13.316;2023-05-08T08:11:37;6.43;;;2.17;;
10659;SDS011;5378;53.206;13.316;2023-05-08T08:14:24;3.50;;;1.73;;
10659;SDS011;5378;53.206;13.316;2023-05-08T08:17:12;3.20;;;2.13;;
10659;SDS011;5378;53.206;13.316;2023-05-08T08:20:00;2.63;;;1.80;;
10659;SDS011;5378;53.206;13.316;2023-05-08T08:22:47;3.30;;;1.57;;
10659;SDS011;5378;53.206;13.316;2023-05-08T08:25:34;6.80;;;1.90;;
10659;SDS011;5378;53.206;13.316;2023-05-08T08:28:21;7.50;;;2.07;;
10659;SDS011;5378;53.206;13.316;2023-05-08T08:31:08;3.80;;;1.93;;
10659;SDS011;5378;53.206;13.316;2023-05-08T08:33:55;1.93;;;1.33;;
10659;SDS011;5378;53.206;13.316;2023-05-08T08:36:44;3.00;;;1.50;;
10659;SDS011;5378;53.206;13.316;2023-05-08T08:39:31;1.87;;;1.60;;
10659;SDS011;5378;53.206;13.316;2023-05-08T08:42:18;6.60;;;3.50;;
10659;SDS011;5378;53.206;13.316;2023-05-08T08:45:05;4.80;;;1.47;;
10659;SDS011;5378;53.206;13.316;2023-05-08T08:47:53;2.70;;;1.70;;
10659;SDS011;5378;53.206;13.316;2023-05-08T08:50:41;2.43;;;2.23;;
10659;SDS011;5378;53.206;13.316;2023-05-08T08:53:33;3.13;;;1.53;;
10659;SDS011;5378;53.206;13.316;2023-05-08T08:56:22;3.17;;;1.73;;
10659;SDS011;5378;53.206;13.316;2023-05-08T08:59:09;4.00;;;1.70;;
10659;SDS011;5378;53.206;13.316;2023-05-08T09:01:59;6.50;;;2.00;;
10659;SDS011;5378;53.206;13.316;2023-05-08T09:04:51;5.20;;;2.13;;
10659;SDS011;5378;53.206;13.316;2023-05-08T09:07:38;3.37;;;2.10;;
10659;SDS011;5378;53.206;13.316;2023-05-08T09:10:29;2.53;;;1.70;;
10659;SDS011;5378;53.206;13.316;2023-05-08T09:13:17;3.90;;;1.73;;
10659;SDS011;5378;53.206;13.316;2023-05-08T09:16:04;9.33;;;1.77;;
10659;SDS011;5378;53.206;13.316;2023-05-08T09:18:52;2.50;;;2.10;;
10659;SDS011;5378;53.206;13.316;2023-05-08T09:21:39;2.57;;;2.00;;
10659;SDS011;5378;53.206;13.316;2023-05-08T09:27:43;2.53;;;2.00;;
10659;SDS011;5378;53.206;13.316;2023-05-08T09:30:30;4.17;;;1.83;;
10659;SDS011;5378;53.206;13.316;2023-05-08T09:33:34;2.17;;;1.60;;
10659;SDS011;5378;53.206;13.316;2023-05-08T09:36:30;3.00;;;2.50;;
10659;SDS011;5378;53.206;13.316;2023-05-08T09:39:21;2.40;;;1.73;;
10659;SDS011;5378;53.206;13.316;2023-05-08T09:42:09;3.17;;;2.07;;
10659;SDS011;5378;53.206;13.316;2023-05-08T09:44:58;2.20;;;1.43;;
10659;SDS011;5378;53.206;13.316;2023-05-08T09:47:46;1.93;;;1.43;;
10659;SDS011;5378;53.206;13.316;2023-05-08T09:50:33;3.60;;;2.37;;
10659;SDS011;5378;53.206;13.316;2023-05-08T09:53:29;5.00;;;1.90;;
10659;SDS011;5378;53.206;13.316;2023-05-08T09:56:27;2.73;;;1.90;;
10659;SDS011;5378;53.206;13.316;2023-05-08T09:59:21;5.23;;;2.40;;
10659;SDS011;5378;53.206;13.316;2023-05-08T10:02:12;9.90;;;2.37;;
10659;SDS011;5378;53.206;13.316;2023-05-08T10:05:02;4.33;;;1.70;;
10659;SDS011;5378;53.206;13.316;2023-05-08T10:07:50;3.43;;;2.13;;
10659;SDS011;5378;53.206;13.316;2023-05-08T10:10:37;2.33;;;2.13;;
10659;SDS011;5378;53.206;13.316;2023-05-08T10:13:23;2.63;;;2.10;;
10659;SDS011;5378;53.206;13.316;2023-05-08T10:16:13;5.73;;;2.03;;
10659;SDS011;5378;53.206;13.316;2023-05-08T10:19:03;2.53;;;2.03;;
10659;SDS011;5378;53.206;13.316;2023-05-08T10:21:58;6.20;;;2.97;;
10659;SDS011;5378;53.206;13.316;2023-05-08T10:24:48;1.80;;;1.40;;
10659;SDS011;5378;53.206;13.316;2023-05-08T10:27:40;5.73;;;2.40;;
10659;SDS011;5378;53.206;13.316;2023-05-08T10:30:33;6.10;;;2.53;;
10659;SDS011;5378;53.206;13.316;2023-05-08T10:33:24;2.00;;;1.53;;
10659;SDS011;5378;53.206;13.316;2023-05-08T10:36:17;3.23;;;2.00;;
10659;SDS011;5378;53.206;13.316;2023-05-08T10:39:05;4.47;;;2.80;;
10659;SDS011;5378;53.206;13.316;2023-05-08T10:41:53;3.53;;;2.30;;
10659;SDS011;5378;53.206;13.316;2023-05-08T10:44:40;2.27;;;1.80;;
10659;SDS011;5378;53.206;13.316;2023-05-08T10:47:29;2.57;;;1.80;;
10659;SDS011;5378;53.206;13.316;2023-05-08T10:50:27;4.00;;;2.03;;
10659;SDS011;5378;53.206;13.316;2023-05-08T10:53:30;3.60;;;1.50;;
10659;SDS011;5378;53.206;13.316;2023-05-08T10:56:25;2.30;;;1.80;;
10659;SDS011;5378;53.206;13.316;2023-05-08T10:59:16;2.60;;;1.37;;
10659;SDS011;5378;53.206;13.316;2023-05-08T11:02:04;6.17;;;1.70;;
10659;SDS011;5378;53.206;13.316;2023-05-08T11:04:52;3.03;;;1.50;;
10659;SDS011;5378;53.206;13.316;2023-05-08T11:07:51;4.00;;;2.23;;
10659;SDS011;5378;53.206;13.316;2023-05-08T11:10:40;2.37;;;1.30;;
10659;SDS011;5378;53.206;13.316;2023-05-08T11:13:29;7.80;;;2.00;;
10659;SDS011;5378;53.206;13.316;2023-05-08T11:19:55;3.67;;;1.70;;
10659;SDS011;5378;53.206;13.316;2023-05-08T11:22:46;4.20;;;1.30;;
10659;SDS011;5378;53.206;13.316;2023-05-08T11:25:43;2.57;;;1.70;;
10659;SDS011;5378;53.206;13.316;2023-05-08T11:28:32;2.60;;;1.53;;
10659;SDS011;5378;53.206;13.316;2023-05-08T11:31:22;5.63;;;2.00;;
10659;SDS011;5378;53.206;13.316;2023-05-08T11:37:31;2.00;;;1.70;;
10659;SDS011;5378;53.206;13.316;2023-05-08T11:40:44;4.43;;;1.93;;
10659;SDS011;5378;53.206;13.316;2023-05-08T11:43:53;5.23;;;1.50;;
10659;SDS011;5378;53.206;13.316;2023-05-08T11:47:00;6.50;;;2.20;;
10659;SDS011;5378;53.206;13.316;2023-05-08T11:49:49;2.00;;;1.70;;
10659;SDS011;5378;53.206;13.316;2023-05-08T11:52:37;2.40;;;1.57;;
10659;SDS011;5378;53.206;13.316;2023-05-08T11:55:25;5.93;;;1.70;;
10659;SDS011;5378;53.206;13.316;2023-05-08T11:58:13;2.63;;;1.50;;
10659;SDS011;5378;53.206;13.316;2023-05-08T12:01:01;3.50;;;1.80;;
10659;SDS011;5378;53.206;13.316;2023-05-08T12:03:48;3.17;;;2.00;;
10659;SDS011;5378;53.206;13.316;2023-05-08T12:06:45;3.00;;;1.50;;
10659;SDS011;5378;53.206;13.316;2023-05-08T12:09:35;4.47;;;1.70;;
10659;SDS011;5378;53.206;13.316;2023-05-08T12:12:22;3.30;;;1.50;;
10659;SDS011;5378;53.206;13.316;2023-05-08T12:15:22;4.43;;;1.90;;
10659;SDS011;5378;53.206;13.316;2023-05-08T12:18:09;2.87;;;1.50;;
10659;SDS011;5378;53.206;13.316;2023-05-08T12:20:58;3.07;;;1.60;;
10659;SDS011;5378;53.206;13.316;2023-05-08T12:23:46;3.13;;;1.47;;
10659;SDS011;5378;53.206;13.316;2023-05-08T12:26:33;7.73;;;2.00;;
10659;SDS011;5378;53.206;13.316;2023-05-08T12:29:22;4.27;;;1.97;;
10659;SDS011;5378;53.206;13.316;2023-05-08T12:32:12;2.07;;;1.40;;
10659;SDS011;5378;53.206;13.316;2023-05-08T12:35:00;10.17;;;1.40;;
10659;SDS011;5378;53.206;13.316;2023-05-08T12:37:49;3.30;;;1.83;;
10659;SDS011;5378;53.206;13.316;2023-05-08T12:40:39;2.13;;;1.23;;
10659;SDS011;5378;53.206;13.316;2023-05-08T12:43:31;9.63;;;1.70;;
10659;SDS011;5378;53.206;13.316;2023-05-08T12:46:19;1.90;;;1.27;;
10659;SDS011;5378;53.206;13.316;2023-05-08T12:49:08;3.07;;;1.27;;
10659;SDS011;5378;53.206;13.316;2023-05-08T12:52:01;3.50;;;1.57;;
10659;SDS011;5378;53.206;13.316;2023-05-08T12:54:49;1.50;;;1.30;;
10659;SDS011;5378;53.206;13.316;2023-05-08T12:57:36;1.87;;;1.70;;
10659;SDS011;5378;53.206;13.316;2023-05-08T13:00:23;2.83;;;1.37;;
10659;SDS011;5378;53.206;13.316;2023-05-08T13:03:10;1.37;;;1.27;;
10659;SDS011;5378;53.206;13.316;2023-05-08T13:06:00;1.50;;;1.40;;
10659;SDS011;5378;53.206;13.316;2023-05-08T13:08:51;2.93;;;1.77;;
10659;SDS011;5378;53.206;13.316;2023-05-08T13:11:39;3.40;;;1.70;;
10659;SDS011;5378;53.206;13.316;2023-05-08T13:14:27;3.43;;;1.60;;
10659;SDS011;5378;53.206;13.316;2023-05-08T13:17:15;3.43;;;1.53;;
10659;SDS011;5378;53.206;13.316;2023-05-08T13:20:02;3.13;;;1.70;;
10659;SDS011;5378;53.206;13.316;2023-05-08T13:22:51;1.63;;;1.50;;
10659;SDS011;5378;53.206;13.316;2023-05-08T13:25:40;1.97;;;1.60;;
10659;SDS011;5378;53.206;13.316;2023-05-08T13:28:27;4.33;;;1.30;;
10659;SDS011;5378;53.206;13.316;2023-05-08T13:31:14;2.97;;;1.60;;
10659;SDS011;5378;53.206;13.316;2023-05-08T13:34:01;2.60;;;1.33;;
10659;SDS011;5378;53.206;13.316;2023-05-08T13:36:48;4.83;;;2.07;;
10659;SDS011;5378;53.206;13.316;2023-05-08T13:39:36;3.07;;;1.30;;
10659;SDS011;5378;53.206;13.316;2023-05-08T13:42:23;1.60;;;1.50;;
10659;SDS011;5378;53.206;13.316;2023-05-08T13:45:10;2.63;;;2.03;;
10659;SDS011;5378;53.206;13.316;2023-05-08T13:47:59;3.03;;;1.60;;
10659;SDS011;5378;53.206;13.316;2023-05-08T13:50:47;2.13;;;1.50;;
10659;SDS011;5378;53.206;13.316;2023-05-08T13:53:34;1.70;;;1.60;;
10659;SDS011;5378;53.206;13.316;2023-05-08T13:56:22;4.43;;;1.80;;
10659;SDS011;5378;53.206;13.316;2023-05-08T13:59:09;1.57;;;1.20;;
10659;SDS011;5378;53.206;13.316;2023-05-08T14:01:56;1.33;;;1.23;;
10659;SDS011;5378;53.206;13.316;2023-05-08T14:04:43;4.53;;;1.70;;
10659;SDS011;5378;53.206;13.316;2023-05-08T14:07:30;1.97;;;1.47;;
10659;SDS011;5378;53.206;13.316;2023-05-08T14:10:17;2.20;;;1.50;;
10659;SDS011;5378;53.206;13.316;2023-05-08T14:13:06;3.43;;;1.60;;
10659;SDS011;5378;53.206;13.316;2023-05-08T14:15:53;2.93;;;1.50;;
10659;SDS011;5378;53.206;13.316;2023-05-08T14:18:40;6.50;;;1.50;;
10659;SDS011;5378;53.206;13.316;2023-05-08T14:21:27;4.60;;;1.93;;
10659;SDS011;5378;53.206;13.316;2023-05-08T14:24:15;1.80;;;1.20;;
10659;SDS011;5378;53.206;13.316;2023-05-08T14:27:02;1.90;;;1.47;;
10659;SDS011;5378;53.206;13.316;2023-05-08T14:29:52;1.03;;;0.83;;
10659;SDS011;5378;53.206;13.316;2023-05-08T14:32:40;1.30;;;1.10;;
10659;SDS011;5378;53.206;13.316;2023-05-08T14:35:26;4.37;;;1.67;;
10659;SDS011;5378;53.206;13.316;2023-05-08T14:38:14;1.43;;;1.10;;
10659;SDS011;5378;53.206;13.316;2023-05-08T14:41:00;3.33;;;1.30;;
10659;SDS011;5378;53.206;13.316;2023-05-08T14:43:48;5.77;;;1.60;;
10659;SDS011;5378;53.206;13.316;2023-05-08T14:46:36;2.23;;;1.53;;
10659;SDS011;5378;53.206;13.316;2023-05-08T14:49:24;1.83;;;1.60;;
10659;SDS011;5378;53.206;13.316;2023-05-08T14:52:18;2.00;;;1.20;;
10659;SDS011;5378;53.206;13.316;2023-05-08T14:55:05;4.23;;;1.30;;
10659;SDS011;5378;53.206;13.316;2023-05-08T14:57:53;2.90;;;1.50;;
10659;SDS011;5378;53.206;13.316;2023-05-08T15:00:40;2.77;;;1.57;;
10659;SDS011;5378;53.206;13.316;2023-05-08T15:03:29;2.53;;;1.67;;
10659;SDS011;5378;53.206;13.316;2023-05-08T15:06:16;10.47;;;1.73;;
10659;SDS011;5378;53.206;13.316;2023-05-08T15:09:05;2.33;;;1.17;;
10659;SDS011;5378;53.206;13.316;2023-05-08T15:11:53;1.53;;;1.20;;
10659;SDS011;5378;53.206;13.316;2023-05-08T15:14:40;4.93;;;1.30;;
10659;SDS011;5378;53.206;13.316;2023-05-08T15:17:27;1.63;;;1.10;;
10659;SDS011;5378;53.206;13.316;2023-05-08T15:20:16;2.73;;;1.20;;
10659;SDS011;5378;53.206;13.316;2023-05-08T15:23:05;6.30;;;2.03;;
10659;SDS011;5378;53.206;13.316;2023-05-08T15:25:53;1.27;;;1.17;;
10659;SDS011;5378;53.206;13.316;2023-05-08T15:28:40;2.47;;;1.60;;
10659;SDS011;5378;53.206;13.316;2023-05-08T15:31:27;1.70;;;1.10;;
10659;SDS011;5378;53.206;13.316;2023-05-08T15:34:14;2.03;;;1.53;;
10659;SDS011;5378;53.206;13.316;2023-05-08T15:37:03;1.37;;;1.20;;
10659;SDS011;5378;53.206;13.316;2023-05-08T15:39:50;2.10;;;1.33;;
10659;SDS011;5378;53.206;13.316;2023-05-08T15:42:37;2.53;;;1.80;;
10659;SDS011;5378;53.206;13.316;2023-05-08T15:45:24;1.40;;;1.23;;
10659;SDS011;5378;53.206;13.316;2023-05-08T15:48:11;5.03;;;1.97;;
10659;SDS011;5378;53.206;13.316;2023-05-08T15:50:58;2.50;;;1.60;;
10659;SDS011;5378;53.206;13.316;2023-05-08T15:53:47;2.17;;;1.63;;
10659;SDS011;5378;53.206;13.316;2023-05-08T15:56:36;4.83;;;1.63;;
10659;SDS011;5378;53.206;13.316;2023-05-08T15:59:23;4.23;;;1.50;;
10659;SDS011;5378;53.206;13.316;2023-05-08T16:02:10;4.30;;;1.80;;
10659;SDS011;5378;53.206;13.316;2023-05-08T16:04:57;2.73;;;1.90;;
10659;SDS011;5378;53.206;13.316;2023-05-08T16:07:44;2.00;;;1.60;;
10659;SDS011;5378;53.206;13.316;2023-05-08T16:10:34;1.37;;;1.27;;
10659;SDS011;5378;53.206;13.316;2023-05-08T16:13:21;2.77;;;1.50;;
10659;SDS011;5378;53.206;13.316;2023-05-08T16:16:08;3.63;;;1.60;;
10659;SDS011;5378;53.206;13.316;2023-05-08T16:18:55;2.93;;;1.87;;
10659;SDS011;5378;53.206;13.316;2023-05-08T16:21:44;3.53;;;1.80;;
10659;SDS011;5378;53.206;13.316;2023-05-08T16:24:31;2.10;;;1.60;;
10659;SDS011;5378;53.206;13.316;2023-05-08T16:27:19;3.67;;;2.00;;
10659;SDS011;5378;53.206;13.316;2023-05-08T16:30:06;2.70;;;1.77;;
10659;SDS011;5378;53.206;13.316;2023-05-08T16:32:54;2.20;;;1.43;;
10659;SDS011;5378;53.206;13.316;2023-05-08T16:35:41;3.10;;;1.43;;
10659;SDS011;5378;53.206;13.316;2023-05-08T16:38:28;3.53;;;1.80;;
10659;SDS011;5378;53.206;13.316;2023-05-08T16:41:15;4.00;;;1.90;;
10659;SDS011;5378;53.206;13.316;2023-05-08T16:44:03;1.93;;;1.50;;
10659;SDS011;5378;53.206;13.316;2023-05-08T16:46:50;3.17;;;1.60;;
10659;SDS011;5378;53.206;13.316;2023-05-08T16:49:37;2.43;;;1.60;;
10659;SDS011;5378;53.206;13.316;2023-05-08T16:52:24;3.37;;;1.63;;
10659;SDS011;5378;53.206;13.316;2023-05-08T16:55:11;2.00;;;1.47;;
10659;SDS011;5378;53.206;13.316;2023-05-08T16:57:59;2.93;;;1.80;;
10659;SDS011;5378;53.206;13.316;2023-05-08T17:00:47;3.93;;;1.60;;
10659;SDS011;5378;53.206;13.316;2023-05-08T17:03:34;5.80;;;2.17;;
10659;SDS011;5378;53.206;13.316;2023-05-08T17:06:21;1.70;;;1.33;;
10659;SDS011;5378;53.206;13.316;2023-05-08T17:09:08;2.40;;;1.73;;
10659;SDS011;5378;53.206;13.316;2023-05-08T17:11:55;3.20;;;1.70;;